Main page
METAR-TAF:

METAR-TAF

Airports :

Payerne Air Base

Payerne, Switzerland

latitude: 46-49N, longitude: 006-57E, elevation: 490 m

Current weather observation

The report was made 48 minutes ago, at 23:20 UTC
Wind 7 kt from the South/Southwest
Temperature 3°C
Humidity 93%
Pressure 1006 hPa
Visibility 10 km or more
Few clouds at a height of 4800 ft
Broken clouds at a height of 5400 ft
Overcast at a height of 6100 ft
light rain

METAR: LSMP 172320Z AUTO 21007KT 9999NDV -RA FEW048 BKN054 OVC061 03/02 Q1006 RMK

Time: 01:08 (00:08 UTC)


TAF: missing

Weather observations and forecasts of more than 4000 airports (METAR and TAF reports).

The available stations are represented by yellow and red dots on the map.

Hover mouse over dot to see the name of the station.

Then click to see weather observations and forecasts.

To change the map : click on the green buttons with a black cross to zoom in, on the green button with a dash to zoom out, or on the green arrows for adjacent maps.


METAR-TAF: